createdAt,value
2023-01-22T00:01:25.580Z,-2.00
2023-01-22T00:03:54.874Z,-1.90
2023-01-22T00:06:23.651Z,-2.00
2023-01-22T00:08:52.471Z,-2.00
2023-01-22T00:11:21.424Z,-2.00
2023-01-22T00:13:50.879Z,-2.00
2023-01-22T00:16:20.293Z,-2.00
2023-01-22T00:18:48.507Z,-2.00
2023-01-22T00:21:16.490Z,-2.00
2023-01-22T00:23:44.781Z,-2.00
2023-01-22T00:26:15.389Z,-2.00
2023-01-22T00:28:45.089Z,-2.00
2023-01-22T00:31:16.427Z,-2.00
2023-01-22T00:33:47.128Z,-2.00
2023-01-22T00:36:17.018Z,-1.90
2023-01-22T00:38:45.392Z,-2.00
2023-01-22T00:41:14.253Z,-1.90
2023-01-22T00:43:42.434Z,-2.00
2023-01-22T00:46:15.160Z,-2.00
2023-01-22T00:48:46.378Z,-2.10
2023-01-22T00:51:15.595Z,-2.10
2023-01-22T00:53:47.424Z,-2.00
2023-01-22T00:56:17.158Z,-2.10
2023-01-22T00:58:45.415Z,-2.10
2023-01-22T01:01:14.566Z,-2.00
2023-01-22T01:03:44.321Z,-2.00
2023-01-22T01:06:16.103Z,-2.00
2023-01-22T01:08:45.395Z,-2.00
2023-01-22T01:11:15.308Z,-2.00
2023-01-22T01:13:45.733Z,-2.00
2023-01-22T01:16:16.770Z,-2.00
2023-01-22T01:18:49.447Z,-2.00
2023-01-22T01:21:19.175Z,-1.90
2023-01-22T01:23:47.626Z,-2.00
2023-01-22T01:26:17.497Z,-2.00
2023-01-22T01:28:46.515Z,-2.00
2023-01-22T01:31:17.726Z,-2.00
2023-01-22T01:33:47.800Z,-2.00
2023-01-22T01:36:21.313Z,-2.00
2023-01-22T01:38:55.765Z,-2.10
2023-01-22T01:41:27.725Z,-2.10
2023-01-22T01:44:10.076Z,-2.10
2023-01-22T01:46:42.032Z,-2.10
2023-01-22T01:49:19.366Z,-2.10
2023-01-22T01:51:48.758Z,-2.10
2023-01-22T01:54:18.044Z,-2.20
2023-01-22T01:56:50.229Z,-2.20
2023-01-22T01:59:20.587Z,-2.20
2023-01-22T02:01:55.485Z,-2.10
2023-01-22T02:04:25.696Z,-2.10
2023-01-22T02:06:53.716Z,-2.20
2023-01-22T02:09:22.396Z,-2.10
2023-01-22T02:11:52.389Z,-2.20
2023-01-22T02:14:28.546Z,-2.20
2023-01-22T02:17:06.749Z,-2.20
2023-01-22T02:19:36.158Z,-2.20
2023-01-22T02:22:12.428Z,-2.30
2023-01-22T02:24:40.722Z,-2.30
2023-01-22T02:27:09.334Z,-2.30
2023-01-22T02:29:37.510Z,-2.30
2023-01-22T02:32:05.968Z,-2.30
2023-01-22T02:34:34.168Z,-2.30
2023-01-22T02:37:03.655Z,-2.40
2023-01-22T02:39:33.124Z,-2.40
2023-01-22T02:42:02.161Z,-2.40
2023-01-22T02:44:32.719Z,-2.40
2023-01-22T02:47:00.972Z,-2.40
2023-01-22T02:49:29.383Z,-2.40
2023-01-22T02:51:57.360Z,-2.40
2023-01-22T02:54:27.837Z,-2.40
2023-01-22T02:56:57.690Z,-2.50
2023-01-22T02:59:25.814Z,-2.40
2023-01-22T03:01:54.155Z,-2.40
2023-01-22T03:04:22.180Z,-2.40
2023-01-22T03:06:50.589Z,-2.40
2023-01-22T03:09:19.216Z,-2.40
2023-01-22T03:11:48.196Z,-2.40
2023-01-22T03:14:35.073Z,-2.40
2023-01-22T03:17:21.344Z,-2.50
2023-01-22T03:20:06.736Z,-2.50
2023-01-22T03:22:34.796Z,-2.50
2023-01-22T03:25:03.483Z,-2.50
2023-01-22T03:27:33.586Z,-2.50
2023-01-22T03:30:02.968Z,-2.50
2023-01-22T03:32:32.916Z,-2.40
2023-01-22T03:35:01.774Z,-2.40
2023-01-22T03:37:30.176Z,-2.40
2023-01-22T03:40:00.143Z,-2.40
2023-01-22T03:42:30.695Z,-2.40
2023-01-22T03:44:58.728Z,-2.40
2023-01-22T03:47:28.071Z,-2.30
2023-01-22T03:49:56.785Z,-2.40
2023-01-22T03:52:24.847Z,-2.40
2023-01-22T03:54:52.980Z,-2.40
2023-01-22T03:57:20.927Z,-2.30
2023-01-22T03:59:48.938Z,-2.30
2023-01-22T04:02:20.202Z,-2.30
2023-01-22T04:04:50.456Z,-2.30
2023-01-22T04:07:18.459Z,-2.30
2023-01-22T04:09:46.479Z,-2.30
2023-01-22T04:12:14.457Z,-2.30
2023-01-22T04:14:42.873Z,-2.30
2023-01-22T04:17:11.103Z,-2.30
2023-01-22T04:19:39.056Z,-2.40
2023-01-22T04:22:08.611Z,-2.30
2023-01-22T04:24:36.788Z,-2.30
2023-01-22T04:27:05.151Z,-2.30
2023-01-22T04:29:33.226Z,-2.30
2023-01-22T04:32:01.229Z,-2.30
2023-01-22T04:34:29.284Z,-2.30
2023-01-22T04:36:57.346Z,-2.30
2023-01-22T04:39:26.950Z,-2.30
2023-01-22T04:41:54.936Z,-2.30
2023-01-22T04:44:22.941Z,-2.30
2023-01-22T04:46:50.926Z,-2.40
2023-01-22T04:49:18.965Z,-2.30
2023-01-22T04:51:47.535Z,-2.40
2023-01-22T04:54:20.014Z,-2.50
2023-01-22T04:56:49.366Z,-2.50
2023-01-22T04:59:17.368Z,-2.60
2023-01-22T05:01:45.421Z,-2.60
2023-01-22T05:04:15.794Z,-2.70
2023-01-22T05:06:46.003Z,-2.80
2023-01-22T05:09:14.051Z,-2.80
2023-01-22T05:11:42.290Z,-2.90
2023-01-22T05:14:11.899Z,-2.90
2023-01-22T05:16:40.783Z,-3.00
2023-01-22T05:19:08.901Z,-3.10
2023-01-22T05:21:36.953Z,-3.20
2023-01-22T05:24:07.479Z,-3.20
2023-01-22T05:26:35.723Z,-3.30
2023-01-22T05:29:04.526Z,-3.40
2023-01-22T05:31:33.947Z,-3.50
2023-01-22T05:34:02.093Z,-3.50
2023-01-22T05:36:30.140Z,-3.60
2023-01-22T05:38:58.137Z,-3.70
2023-01-22T05:41:26.606Z,-3.70
2023-01-22T05:43:56.483Z,-3.70
2023-01-22T05:46:24.435Z,-3.80
2023-01-22T05:48:53.842Z,-3.80
2023-01-22T05:51:25.005Z,-3.80
2023-01-22T05:53:54.178Z,-3.80
2023-01-22T05:56:26.784Z,-3.80
2023-01-22T05:58:54.801Z,-3.70
2023-01-22T06:01:22.782Z,-3.70
2023-01-22T06:03:52.240Z,-3.70
2023-01-22T06:06:26.009Z,-3.70
2023-01-22T06:08:56.110Z,-3.60
2023-01-22T06:11:24.194Z,-3.60
2023-01-22T06:13:52.226Z,-3.60
2023-01-22T06:16:20.416Z,-3.50
2023-01-22T06:18:48.986Z,-3.50
2023-01-22T06:21:16.983Z,-3.50
2023-01-22T06:23:46.367Z,-3.50
2023-01-22T06:26:14.523Z,-3.50
2023-01-22T06:28:42.547Z,-3.50
2023-01-22T06:31:11.179Z,-3.40
2023-01-22T06:33:41.168Z,-3.40
2023-01-22T06:36:09.532Z,-3.30
2023-01-22T06:38:38.030Z,-3.30
2023-01-22T06:41:07.488Z,-3.20
2023-01-22T06:43:37.764Z,-3.20
2023-01-22T06:46:06.488Z,-3.20
2023-01-22T06:48:34.642Z,-3.20
2023-01-22T06:51:02.886Z,-3.20
2023-01-22T06:53:30.890Z,-3.20
2023-01-22T06:56:01.854Z,-3.20
2023-01-22T06:58:32.000Z,-3.20
2023-01-22T07:01:01.764Z,-3.20
2023-01-22T07:03:29.858Z,-3.10
2023-01-22T07:05:59.193Z,-3.10
2023-01-22T07:08:28.569Z,-3.10
2023-01-22T07:10:56.687Z,-3.10
2023-01-22T07:13:24.734Z,-3.00
2023-01-22T07:15:54.126Z,-2.90
2023-01-22T07:18:23.989Z,-2.90
2023-01-22T07:20:52.829Z,-2.90
2023-01-22T07:23:20.791Z,-2.90
2023-01-22T07:25:48.745Z,-2.80
2023-01-22T07:28:20.128Z,-2.80
2023-01-22T07:30:48.319Z,-2.80
2023-01-22T07:33:18.349Z,-2.80
2023-01-22T07:35:54.020Z,-2.70
2023-01-22T07:38:22.221Z,-2.70
2023-01-22T07:40:50.488Z,-2.70
2023-01-22T07:43:18.767Z,-2.70
2023-01-22T07:45:49.696Z,-2.60
2023-01-22T07:48:19.070Z,-2.60
2023-01-22T07:50:47.143Z,-2.60
2023-01-22T07:53:15.116Z,-2.50
2023-01-22T07:55:43.493Z,-2.50
2023-01-22T07:58:12.966Z,-2.50
2023-01-22T08:00:41.019Z,-2.40
2023-01-22T08:03:10.414Z,-2.40
2023-01-22T08:05:43.482Z,-2.40
2023-01-22T08:08:15.463Z,-2.40
2023-01-22T08:10:44.026Z,-2.40
2023-01-22T08:13:12.116Z,-2.30
2023-01-22T08:15:40.504Z,-2.20
2023-01-22T08:18:11.568Z,-2.20
2023-01-22T08:20:41.057Z,-2.20
2023-01-22T08:23:09.016Z,-2.20
2023-01-22T08:25:37.255Z,-2.30
2023-01-22T08:28:07.397Z,-2.20
2023-01-22T08:30:45.465Z,-2.10
2023-01-22T08:33:15.615Z,-2.10
2023-01-22T08:35:46.023Z,-2.00
2023-01-22T08:38:14.177Z,-2.00
2023-01-22T08:40:42.666Z,-1.90
2023-01-22T08:43:10.703Z,-2.00
2023-01-22T08:45:38.757Z,-2.00
2023-01-22T08:48:07.380Z,-1.90
2023-01-22T08:50:35.583Z,-2.00
2023-01-22T08:53:05.716Z,-2.10
2023-01-22T08:55:33.888Z,-2.00
2023-01-22T08:58:01.887Z,-2.20
2023-01-22T09:00:29.917Z,-2.00
2023-01-22T09:03:01.382Z,-1.90
2023-01-22T09:05:29.912Z,-1.90
2023-01-22T09:07:57.945Z,-2.00
2023-01-22T09:10:27.358Z,-1.90
2023-01-22T09:12:55.327Z,-1.90
2023-01-22T09:15:23.411Z,-1.70
2023-01-22T09:17:51.580Z,-1.70
2023-01-22T09:20:20.095Z,-1.80
2023-01-22T09:22:49.408Z,-1.80
2023-01-22T09:25:17.629Z,-1.70
2023-01-22T09:27:47.025Z,-1.60
2023-01-22T09:30:19.041Z,-1.50
2023-01-22T09:32:47.393Z,-1.40
2023-01-22T09:35:16.611Z,-1.40
2023-01-22T09:37:46.419Z,-1.30
2023-01-22T09:40:27.856Z,-1.10
2023-01-22T09:43:06.991Z,-1.00
2023-01-22T09:45:38.816Z,-1.10
2023-01-22T09:48:13.110Z,-1.30
2023-01-22T09:50:43.841Z,-1.20
2023-01-22T09:53:16.345Z,-1.10
2023-01-22T09:55:48.434Z,-1.00
2023-01-22T09:58:22.576Z,-1.00
2023-01-22T10:00:54.353Z,-0.90
2023-01-22T10:03:27.650Z,-1.30
2023-01-22T10:05:59.435Z,-1.20
2023-01-22T10:08:33.152Z,-1.00
2023-01-22T10:11:02.526Z,-0.80
2023-01-22T10:13:34.486Z,-0.80
2023-01-22T10:16:03.376Z,-0.60
2023-01-22T10:18:37.616Z,-0.40
2023-01-22T10:21:08.479Z,-0.50
2023-01-22T10:23:36.717Z,-0.60
2023-01-22T10:26:15.083Z,-0.60
2023-01-22T10:28:48.864Z,-0.70
2023-01-22T10:31:27.210Z,-0.60
2023-01-22T10:33:59.840Z,-0.50
2023-01-22T10:36:28.403Z,-0.40
2023-01-22T10:39:08.121Z,-0.40
2023-01-22T10:41:36.309Z,-0.20
2023-01-22T10:44:27.406Z,0.00
2023-01-22T10:46:56.932Z,0.10
2023-01-22T10:49:27.801Z,0.30
2023-01-22T10:51:57.488Z,0.10
2023-01-22T10:54:31.677Z,0.40
2023-01-22T10:57:08.217Z,0.60
2023-01-22T10:59:38.432Z,0.80
2023-01-22T11:02:24.333Z,0.80
2023-01-22T11:04:52.641Z,0.80
2023-01-22T11:07:22.819Z,0.70
2023-01-22T11:09:55.182Z,0.60
2023-01-22T11:12:28.283Z,0.60
2023-01-22T11:15:06.351Z,0.50
2023-01-22T11:17:39.471Z,0.40
2023-01-22T11:20:21.745Z,0.30
2023-01-22T11:23:08.229Z,0.30
2023-01-22T11:25:44.878Z,0.20
2023-01-22T11:28:29.248Z,0.40
2023-01-22T11:31:22.681Z,0.30
2023-01-22T11:34:22.147Z,0.20
2023-01-22T11:36:56.396Z,0.10
2023-01-22T11:39:39.501Z,0.00
2023-01-22T11:42:23.527Z,0.00
2023-01-22T11:45:05.327Z,0.10
2023-01-22T11:48:06.655Z,0.10
2023-01-22T11:50:42.774Z,0.00
2023-01-22T11:53:25.968Z,-0.10
2023-01-22T11:56:26.582Z,0.00
2023-01-22T11:59:00.809Z,-0.10
2023-01-22T12:01:40.505Z,-0.30
2023-01-22T12:04:30.539Z,-0.10
2023-01-22T12:07:28.251Z,-0.30
2023-01-22T12:10:11.251Z,-0.10
2023-01-22T12:12:48.561Z,0.00
2023-01-22T12:15:35.095Z,0.10
2023-01-22T12:18:23.494Z,0.20
2023-01-22T12:21:05.617Z,-0.30
2023-01-22T12:23:39.644Z,-0.30
2023-01-22T12:26:13.704Z,-0.30
2023-01-22T12:28:48.319Z,-0.10
2023-01-22T12:31:21.727Z,-0.20
2023-01-22T12:33:49.822Z,-0.30
2023-01-22T12:36:22.913Z,-0.40
2023-01-22T12:38:55.968Z,-0.50
2023-01-22T12:41:38.782Z,-0.70
2023-01-22T12:44:15.680Z,-0.70
2023-01-22T12:46:59.258Z,-0.70
2023-01-22T12:49:28.874Z,-0.60
2023-01-22T12:51:59.874Z,-0.60
2023-01-22T12:54:33.698Z,-0.70
2023-01-22T12:57:21.681Z,-0.50
2023-01-22T12:59:52.131Z,-0.70
2023-01-22T13:02:38.925Z,-0.60
2023-01-22T13:05:13.100Z,-0.50
2023-01-22T13:07:42.515Z,-0.30
2023-01-22T13:10:29.825Z,-0.20
2023-01-22T13:13:02.055Z,-0.20
2023-01-22T13:15:32.796Z,-0.30
2023-01-22T13:18:07.893Z,-0.10
2023-01-22T13:20:38.743Z,0.00
2023-01-22T13:23:08.464Z,0.20
2023-01-22T13:25:36.434Z,0.30
2023-01-22T13:28:05.041Z,0.50
2023-01-22T13:30:33.261Z,0.40
2023-01-22T13:33:15.787Z,0.40
2023-01-22T13:35:44.918Z,0.50
2023-01-22T13:38:21.482Z,0.10
2023-01-22T13:40:57.779Z,0.10
2023-01-22T13:43:26.957Z,0.10
2023-01-22T13:45:56.899Z,0.20
2023-01-22T13:48:27.520Z,0.20
2023-01-22T13:50:58.693Z,0.10
2023-01-22T13:53:32.522Z,0.10
2023-01-22T13:56:01.243Z,0.20
2023-01-22T13:58:49.259Z,0.40
2023-01-22T14:01:30.241Z,0.30
2023-01-22T14:04:03.856Z,0.20
2023-01-22T14:06:43.438Z,0.20
2023-01-22T14:09:13.084Z,0.20
2023-01-22T14:11:41.784Z,0.30
2023-01-22T14:14:19.924Z,0.30
2023-01-22T14:16:48.458Z,0.20
2023-01-22T14:19:16.705Z,-0.10
2023-01-22T14:21:44.824Z,-0.20
2023-01-22T14:24:14.210Z,-0.20
2023-01-22T14:26:42.803Z,-0.20
2023-01-22T14:29:10.889Z,-0.20
2023-01-22T14:31:38.971Z,-0.20
2023-01-22T14:34:07.126Z,-0.30
2023-01-22T14:36:35.182Z,-0.40
2023-01-22T14:39:05.796Z,-0.50
2023-01-22T14:41:36.045Z,-0.70
2023-01-22T14:44:04.893Z,-0.60
2023-01-22T14:46:36.162Z,-0.70
2023-01-22T14:49:05.823Z,-0.60
2023-01-22T14:51:33.844Z,-0.60
2023-01-22T14:54:01.772Z,-0.60
2023-01-22T14:56:29.718Z,-0.70
2023-01-22T14:58:59.067Z,-0.80
2023-01-22T15:01:27.396Z,-0.90
2023-01-22T15:03:55.570Z,-1.00
2023-01-22T15:06:24.959Z,-1.00
2023-01-22T15:08:53.027Z,-1.00
2023-01-22T15:11:21.070Z,-1.10
2023-01-22T15:13:50.145Z,-1.10
2023-01-22T15:16:21.105Z,-1.10
2023-01-22T15:18:49.075Z,-1.10
2023-01-22T15:21:17.133Z,-1.10
2023-01-22T15:23:45.124Z,-1.10
2023-01-22T15:26:25.575Z,-1.10
2023-01-22T15:28:57.343Z,-1.10
2023-01-22T15:31:30.094Z,-1.10
2023-01-22T15:34:00.594Z,-1.20
2023-01-22T15:36:29.141Z,-1.20
2023-01-22T15:38:57.140Z,-1.20
2023-01-22T15:41:27.392Z,-1.30
2023-01-22T15:43:56.868Z,-1.30
2023-01-22T15:46:27.884Z,-1.30
2023-01-22T15:48:57.381Z,-1.30
2023-01-22T15:51:25.410Z,-1.40
2023-01-22T15:53:55.189Z,-1.30
2023-01-22T15:56:25.740Z,-1.30
2023-01-22T15:58:54.465Z,-1.40
2023-01-22T16:01:24.244Z,-1.50
2023-01-22T16:03:53.710Z,-1.50
2023-01-22T16:06:23.544Z,-1.50
2023-01-22T16:08:52.627Z,-1.60
2023-01-22T16:11:21.492Z,-1.70
2023-01-22T16:13:51.046Z,-1.70
2023-01-22T16:16:21.725Z,-1.80
2023-01-22T16:18:51.197Z,-1.80
2023-01-22T16:21:21.999Z,-2.00
2023-01-22T16:23:53.932Z,-2.00
2023-01-22T16:26:23.903Z,-2.00
2023-01-22T16:28:54.439Z,-2.10
2023-01-22T16:31:24.468Z,-2.10
2023-01-22T16:33:55.439Z,-2.10
2023-01-22T16:36:26.892Z,-2.20
2023-01-22T16:38:54.887Z,-2.20
2023-01-22T16:41:26.181Z,-2.20
2023-01-22T16:43:55.921Z,-2.30
2023-01-22T16:46:26.330Z,-2.30
2023-01-22T16:48:59.895Z,-2.30
2023-01-22T16:51:44.075Z,-2.30
2023-01-22T16:54:21.228Z,-2.40
2023-01-22T16:56:52.852Z,-2.40
2023-01-22T16:59:21.535Z,-2.40
2023-01-22T17:01:49.615Z,-2.40
2023-01-22T17:04:18.074Z,-2.40
2023-01-22T17:06:49.935Z,-2.40
2023-01-22T17:09:19.577Z,-2.40
2023-01-22T17:11:50.663Z,-2.40
2023-01-22T17:14:20.480Z,-2.40
2023-01-22T17:16:49.357Z,-2.40
2023-01-22T17:19:18.695Z,-2.30
2023-01-22T17:21:50.367Z,-2.30
2023-01-22T17:24:18.625Z,-2.30
2023-01-22T17:26:48.130Z,-2.20
2023-01-22T17:29:16.661Z,-2.20
2023-01-22T17:31:45.575Z,-2.20
2023-01-22T17:34:13.680Z,-2.10
2023-01-22T17:36:42.743Z,-2.10
2023-01-22T17:39:16.369Z,-2.10
2023-01-22T17:41:44.842Z,-2.10
2023-01-22T17:44:13.144Z,-2.10
2023-01-22T17:46:42.070Z,-2.10
2023-01-22T17:49:11.364Z,-2.10
2023-01-22T17:51:39.761Z,-2.10
2023-01-22T17:54:08.306Z,-2.10
2023-01-22T17:56:42.984Z,-2.10
2023-01-22T17:59:13.708Z,-2.00
2023-01-22T18:01:42.384Z,-2.00
2023-01-22T18:04:12.409Z,-2.00
2023-01-22T18:06:42.035Z,-2.00
2023-01-22T18:09:11.606Z,-2.10
2023-01-22T18:11:41.621Z,-2.10
2023-01-22T18:14:15.602Z,-2.10
2023-01-22T18:16:43.970Z,-2.10
2023-01-22T18:19:12.118Z,-2.10
2023-01-22T18:21:40.492Z,-2.10
2023-01-22T18:24:10.234Z,-2.10
2023-01-22T18:26:40.425Z,-2.10
2023-01-22T18:29:09.045Z,-2.10
2023-01-22T18:31:37.954Z,-2.10
2023-01-22T18:34:07.901Z,-2.10
2023-01-22T18:36:38.808Z,-2.10
2023-01-22T18:39:10.145Z,-2.10
2023-01-22T18:41:41.062Z,-2.10
2023-01-22T18:44:11.049Z,-2.10
2023-01-22T18:46:42.206Z,-2.10
2023-01-22T18:49:17.431Z,-2.10
2023-01-22T18:51:46.222Z,-2.20
2023-01-22T18:54:14.402Z,-2.20
2023-01-22T18:56:44.034Z,-2.20
2023-01-22T18:59:13.076Z,-2.20
2023-01-22T19:01:50.581Z,-2.20
2023-01-22T19:04:21.673Z,-2.20
2023-01-22T19:06:52.649Z,-2.20
2023-01-22T19:09:21.223Z,-2.20
2023-01-22T19:11:53.037Z,-2.30
2023-01-22T19:14:22.474Z,-2.30
2023-01-22T19:16:53.335Z,-2.30
2023-01-22T19:19:22.755Z,-2.30
2023-01-22T19:21:54.742Z,-2.30
2023-01-22T19:24:26.571Z,-2.30
2023-01-22T19:26:56.480Z,-2.30
2023-01-22T19:29:25.584Z,-2.30
2023-01-22T19:31:57.474Z,-2.20
2023-01-22T19:34:26.244Z,-2.20
2023-01-22T19:36:56.076Z,-2.20
2023-01-22T19:39:26.343Z,-2.20
2023-01-22T19:41:56.692Z,-2.10
2023-01-22T19:44:25.178Z,-2.20
2023-01-22T19:46:53.188Z,-2.20
2023-01-22T19:49:22.903Z,-2.10
2023-01-22T19:51:51.013Z,-2.20
2023-01-22T19:54:19.564Z,-2.20
2023-01-22T19:56:47.745Z,-2.10
2023-01-22T19:59:19.657Z,-2.10
2023-01-22T20:01:48.957Z,-2.00
2023-01-22T20:04:21.478Z,-2.10
2023-01-22T20:06:52.221Z,-2.00
2023-01-22T20:09:21.863Z,-2.00
2023-01-22T20:11:54.578Z,-2.00
2023-01-22T20:14:26.396Z,-2.00
2023-01-22T20:16:54.927Z,-2.00
2023-01-22T20:19:23.380Z,-2.00
2023-01-22T20:21:51.504Z,-2.10
2023-01-22T20:24:19.574Z,-2.10
2023-01-22T20:26:47.732Z,-2.10
2023-01-22T20:29:16.907Z,-2.10
2023-01-22T20:31:47.908Z,-2.10
2023-01-22T20:34:16.131Z,-2.20
2023-01-22T20:36:44.157Z,-2.20
2023-01-22T20:39:12.696Z,-2.20
2023-01-22T20:41:41.043Z,-2.20
2023-01-22T20:44:09.562Z,-2.20
2023-01-22T20:46:41.543Z,-2.20
2023-01-22T20:49:13.992Z,-2.20
2023-01-22T20:51:43.448Z,-2.30
2023-01-22T20:54:12.326Z,-2.20
2023-01-22T20:56:40.393Z,-2.20
2023-01-22T20:59:11.505Z,-2.30
2023-01-22T21:01:40.103Z,-2.30
2023-01-22T21:04:12.050Z,-2.30
2023-01-22T21:06:42.459Z,-2.30
2023-01-22T21:09:11.600Z,-2.40
2023-01-22T21:11:41.906Z,-2.30
2023-01-22T21:14:16.631Z,-2.40
2023-01-22T21:16:45.465Z,-2.40
2023-01-22T21:19:22.995Z,-2.40
2023-01-22T21:21:52.691Z,-2.30
2023-01-22T21:24:21.372Z,-2.30
2023-01-22T21:26:49.410Z,-2.30
2023-01-22T21:29:18.976Z,-2.30
2023-01-22T21:31:49.070Z,-2.40
2023-01-22T21:34:18.695Z,-2.50
2023-01-22T21:36:50.415Z,-2.60
2023-01-22T21:39:21.906Z,-2.60
2023-01-22T21:41:50.728Z,-2.60
2023-01-22T21:44:37.718Z,-2.70
2023-01-22T21:47:06.402Z,-2.70
2023-01-22T21:49:36.073Z,-2.80
2023-01-22T21:52:06.357Z,-2.80
2023-01-22T21:54:38.160Z,-2.80
2023-01-22T21:57:07.993Z,-2.80
2023-01-22T21:59:36.869Z,-2.80
2023-01-22T22:02:05.232Z,-2.80
2023-01-22T22:04:33.332Z,-2.90
2023-01-22T22:07:01.488Z,-3.00
2023-01-22T22:09:30.970Z,-3.10
2023-01-22T22:12:02.651Z,-3.10
2023-01-22T22:14:31.318Z,-3.20
2023-01-22T22:16:59.400Z,-3.20
2023-01-22T22:19:29.071Z,-3.30
2023-01-22T22:21:57.687Z,-3.40
2023-01-22T22:24:25.903Z,-3.40
2023-01-22T22:26:54.089Z,-3.50
2023-01-22T22:29:23.523Z,-3.60
2023-01-22T22:31:51.699Z,-3.60
2023-01-22T22:34:20.075Z,-3.70
2023-01-22T22:36:48.069Z,-3.70
2023-01-22T22:39:16.172Z,-3.70
2023-01-22T22:41:45.601Z,-3.70
2023-01-22T22:44:15.010Z,-3.80
2023-01-22T22:46:44.723Z,-3.80
2023-01-22T22:49:14.600Z,-3.90
2023-01-22T22:51:43.899Z,-3.90
2023-01-22T22:54:15.908Z,-4.00
2023-01-22T22:56:48.912Z,-4.00
2023-01-22T22:59:18.587Z,-4.10
2023-01-22T23:01:48.371Z,-4.10
2023-01-22T23:04:16.581Z,-4.20
2023-01-22T23:06:45.971Z,-4.20
2023-01-22T23:09:16.291Z,-4.20
2023-01-22T23:11:45.190Z,-4.30
2023-01-22T23:14:13.505Z,-4.30
2023-01-22T23:16:43.621Z,-4.30
2023-01-22T23:19:17.189Z,-4.30
2023-01-22T23:21:45.945Z,-4.40
2023-01-22T23:24:15.147Z,-4.40
2023-01-22T23:26:44.723Z,-4.50
2023-01-22T23:29:14.303Z,-4.50
2023-01-22T23:31:42.865Z,-4.50
2023-01-22T23:34:15.045Z,-4.50
2023-01-22T23:36:45.296Z,-4.60
2023-01-22T23:39:15.074Z,-4.70
2023-01-22T23:41:43.566Z,-4.80
2023-01-22T23:44:11.731Z,-4.80
2023-01-22T23:46:39.726Z,-4.90
2023-01-22T23:49:07.767Z,-4.90
2023-01-22T23:51:40.980Z,-5.00
2023-01-22T23:54:10.199Z,-5.00
2023-01-22T23:56:38.379Z,-5.00
2023-01-22T23:59:06.635Z,-5.10
